sensor_id;sensor_type;location;lat;lon;timestamp;pressure;altitude;pressure_sealevel;temperature;humidity
56052;BME280;41919;42.648;23.384;2022-10-17T00:00:15;95882.00;;;8.33;68.87
56052;BME280;41919;42.648;23.384;2022-10-17T00:02:40;95880.50;;;8.22;69.54
56052;BME280;41919;42.648;23.384;2022-10-17T00:05:06;95882.50;;;8.29;68.87
56052;BME280;41919;42.648;23.384;2022-10-17T00:07:31;95878.91;;;8.30;68.39
56052;BME280;41919;42.648;23.384;2022-10-17T00:09:56;95879.50;;;8.15;68.75
56052;BME280;41919;42.648;23.384;2022-10-17T00:12:21;95874.13;;;7.82;70.16
56052;BME280;41919;42.648;23.384;2022-10-17T00:14:47;95876.25;;;7.61;71.29
56052;BME280;41919;42.648;23.384;2022-10-17T00:17:12;95883.28;;;7.42;72.42
56052;BME280;41919;42.648;23.384;2022-10-17T00:19:39;95887.75;;;7.32;72.47
56052;BME280;41919;42.648;23.384;2022-10-17T00:22:04;95884.56;;;7.20;73.21
56052;BME280;41919;42.648;23.384;2022-10-17T00:24:30;95880.34;;;7.19;73.82
56052;BME280;41919;42.648;23.384;2022-10-17T00:26:55;95884.50;;;7.12;74.66
56052;BME280;41919;42.648;23.384;2022-10-17T00:29:21;95883.84;;;7.10;74.82
56052;BME280;41919;42.648;23.384;2022-10-17T00:31:46;95877.47;;;7.04;75.02
56052;BME280;41919;42.648;23.384;2022-10-17T00:34:11;95888.38;;;7.08;75.09
56052;BME280;41919;42.648;23.384;2022-10-17T00:36:36;95879.47;;;7.11;75.19
56052;BME280;41919;42.648;23.384;2022-10-17T00:39:02;95878.94;;;7.07;75.31
56052;BME280;41919;42.648;23.384;2022-10-17T00:41:28;95889.03;;;7.10;75.68
56052;BME280;41919;42.648;23.384;2022-10-17T00:44:01;95882.34;;;7.07;75.87
56052;BME280;41919;42.648;23.384;2022-10-17T00:46:30;95893.78;;;7.15;75.58
56052;BME280;41919;42.648;23.384;2022-10-17T00:48:57;95894.44;;;7.17;75.28
56052;BME280;41919;42.648;23.384;2022-10-17T00:52:06;95891.19;;;7.15;75.64
56052;BME280;41919;42.648;23.384;2022-10-17T00:54:11;95887.63;;;7.16;75.71
56052;BME280;41919;42.648;23.384;2022-10-17T00:56:38;95892.16;;;7.14;75.60
56052;BME280;41919;42.648;23.384;2022-10-17T00:59:04;95891.50;;;7.12;75.89
56052;BME280;41919;42.648;23.384;2022-10-17T01:01:31;95890.91;;;7.18;75.61
56052;BME280;41919;42.648;23.384;2022-10-17T01:03:56;95889.56;;;7.14;75.58
56052;BME280;41919;42.648;23.384;2022-10-17T01:06:21;95887.91;;;7.13;75.62
56052;BME280;41919;42.648;23.384;2022-10-17T01:08:47;95889.66;;;7.04;76.32
56052;BME280;41919;42.648;23.384;2022-10-17T01:11:16;95893.13;;;7.13;75.88
56052;BME280;41919;42.648;23.384;2022-10-17T01:13:50;95883.31;;;7.06;76.05
56052;BME280;41919;42.648;23.384;2022-10-17T01:16:17;95888.66;;;7.05;76.08
56052;BME280;41919;42.648;23.384;2022-10-17T01:31:22;95890.00;;;6.91;77.12
56052;BME280;41919;42.648;23.384;2022-10-17T01:38:45;95893.28;;;6.75;78.04
56052;BME280;41919;42.648;23.384;2022-10-17T01:43:43;95892.59;;;6.73;78.35
56052;BME280;41919;42.648;23.384;2022-10-17T01:46:20;95899.47;;;6.64;78.78
56052;BME280;41919;42.648;23.384;2022-10-17T01:48:48;95899.03;;;6.69;78.69
56052;BME280;41919;42.648;23.384;2022-10-17T01:51:29;95897.16;;;6.61;78.80
56052;BME280;41919;42.648;23.384;2022-10-17T01:53:59;95901.84;;;6.58;78.79
56052;BME280;41919;42.648;23.384;2022-10-17T01:56:26;95901.22;;;6.46;79.91
56052;BME280;41919;42.648;23.384;2022-10-17T01:58:55;95906.41;;;6.46;79.62
56052;BME280;41919;42.648;23.384;2022-10-17T02:01:22;95904.47;;;6.48;79.71
56052;BME280;41919;42.648;23.384;2022-10-17T02:03:48;95904.66;;;6.46;79.75
56052;BME280;41919;42.648;23.384;2022-10-17T02:06:15;95910.94;;;6.44;79.56
56052;BME280;41919;42.648;23.384;2022-10-17T02:08:44;95918.34;;;6.39;79.98
56052;BME280;41919;42.648;23.384;2022-10-17T02:11:14;95909.91;;;6.37;80.08
56052;BME280;41919;42.648;23.384;2022-10-17T02:13:54;95919.06;;;6.31;80.26
56052;BME280;41919;42.648;23.384;2022-10-17T02:16:35;95916.31;;;6.33;80.52
56052;BME280;41919;42.648;23.384;2022-10-17T02:24:13;95922.34;;;6.33;80.45
56052;BME280;41919;42.648;23.384;2022-10-17T02:26:51;95923.97;;;6.34;80.37
56052;BME280;41919;42.648;23.384;2022-10-17T02:29:24;95922.09;;;6.26;80.75
56052;BME280;41919;42.648;23.384;2022-10-17T02:32:13;95924.44;;;6.20;81.14
56052;BME280;41919;42.648;23.384;2022-10-17T02:34:41;95927.19;;;6.18;81.22
56052;BME280;41919;42.648;23.384;2022-10-17T02:37:08;95930.34;;;6.12;81.28
56052;BME280;41919;42.648;23.384;2022-10-17T02:39:34;95930.03;;;6.15;81.46
56052;BME280;41919;42.648;23.384;2022-10-17T02:42:02;95929.78;;;6.18;81.46
56052;BME280;41919;42.648;23.384;2022-10-17T02:44:29;95926.09;;;6.11;81.65
56052;BME280;41919;42.648;23.384;2022-10-17T02:49:51;95935.25;;;6.15;81.50
56052;BME280;41919;42.648;23.384;2022-10-17T02:55:02;95940.28;;;6.17;81.44
56052;BME280;41919;42.648;23.384;2022-10-17T02:57:33;95944.91;;;6.23;81.14
56052;BME280;41919;42.648;23.384;2022-10-17T03:00:00;95947.50;;;6.23;81.10
56052;BME280;41919;42.648;23.384;2022-10-17T03:02:27;95950.63;;;6.26;80.81
56052;BME280;41919;42.648;23.384;2022-10-17T03:04:53;95957.09;;;6.22;80.71
56052;BME280;41919;42.648;23.384;2022-10-17T03:07:18;95950.50;;;6.28;80.44
56052;BME280;41919;42.648;23.384;2022-10-17T03:09:43;95954.03;;;6.27;80.78
56052;BME280;41919;42.648;23.384;2022-10-17T03:12:09;95954.59;;;6.31;80.39
56052;BME280;41919;42.648;23.384;2022-10-17T03:14:34;95964.69;;;6.34;80.26
56052;BME280;41919;42.648;23.384;2022-10-17T03:16:59;95963.25;;;6.49;79.68
56052;BME280;41919;42.648;23.384;2022-10-17T03:19:25;95960.09;;;6.55;78.89
56052;BME280;41919;42.648;23.384;2022-10-17T03:21:50;95956.16;;;6.51;78.71
56052;BME280;41919;42.648;23.384;2022-10-17T03:24:15;95960.53;;;6.51;78.92
56052;BME280;41919;42.648;23.384;2022-10-17T03:26:40;95960.00;;;6.47;79.20
56052;BME280;41919;42.648;23.384;2022-10-17T03:29:06;95960.03;;;6.37;79.67
56052;BME280;41919;42.648;23.384;2022-10-17T03:31:31;95961.81;;;6.37;79.65
56052;BME280;41919;42.648;23.384;2022-10-17T03:33:56;95960.91;;;6.18;80.46
56052;BME280;41919;42.648;23.384;2022-10-17T03:36:22;95960.34;;;6.24;80.30
56052;BME280;41919;42.648;23.384;2022-10-17T03:38:47;95959.44;;;6.16;80.64
56052;BME280;41919;42.648;23.384;2022-10-17T03:41:12;95963.13;;;6.13;80.56
56052;BME280;41919;42.648;23.384;2022-10-17T03:43:38;95965.59;;;6.05;80.95
56052;BME280;41919;42.648;23.384;2022-10-17T03:46:03;95974.34;;;5.84;81.80
56052;BME280;41919;42.648;23.384;2022-10-17T03:48:29;95968.81;;;5.69;82.94
56052;BME280;41919;42.648;23.384;2022-10-17T03:50:58;95974.13;;;5.68;83.68
56052;BME280;41919;42.648;23.384;2022-10-17T03:53:25;95974.38;;;5.65;83.98
56052;BME280;41919;42.648;23.384;2022-10-17T03:55:50;95974.66;;;5.62;84.22
56052;BME280;41919;42.648;23.384;2022-10-17T03:58:15;95976.84;;;5.57;84.39
56052;BME280;41919;42.648;23.384;2022-10-17T04:00:40;95974.41;;;5.55;84.53
56052;BME280;41919;42.648;23.384;2022-10-17T04:03:06;95971.94;;;5.44;85.14
56052;BME280;41919;42.648;23.384;2022-10-17T04:05:31;95973.16;;;5.49;85.29
56052;BME280;41919;42.648;23.384;2022-10-17T04:07:56;95977.41;;;5.50;84.90
56052;BME280;41919;42.648;23.384;2022-10-17T04:10:22;95976.44;;;5.52;84.71
56052;BME280;41919;42.648;23.384;2022-10-17T04:12:47;95978.47;;;5.38;85.16
56052;BME280;41919;42.648;23.384;2022-10-17T04:15:12;95986.94;;;5.40;85.23
56052;BME280;41919;42.648;23.384;2022-10-17T04:17:37;95980.94;;;5.30;85.78
56052;BME280;41919;42.648;23.384;2022-10-17T04:20:03;95984.09;;;5.24;86.07
56052;BME280;41919;42.648;23.384;2022-10-17T04:22:28;95992.41;;;5.27;86.19
56052;BME280;41919;42.648;23.384;2022-10-17T04:24:53;95984.47;;;5.19;86.56
56052;BME280;41919;42.648;23.384;2022-10-17T04:27:19;95987.75;;;5.21;86.62
56052;BME280;41919;42.648;23.384;2022-10-17T04:29:44;95991.88;;;5.24;86.64
56052;BME280;41919;42.648;23.384;2022-10-17T04:32:09;95995.41;;;5.23;86.40
56052;BME280;41919;42.648;23.384;2022-10-17T04:34:35;95994.03;;;5.19;86.59
56052;BME280;41919;42.648;23.384;2022-10-17T04:37:00;95994.16;;;5.27;86.45
56052;BME280;41919;42.648;23.384;2022-10-17T04:39:25;95991.06;;;5.33;85.87
56052;BME280;41919;42.648;23.384;2022-10-17T04:41:50;95994.47;;;5.24;85.99
56052;BME280;41919;42.648;23.384;2022-10-17T04:44:16;95996.75;;;5.27;85.57
56052;BME280;41919;42.648;23.384;2022-10-17T04:46:41;96000.44;;;5.24;85.59
56052;BME280;41919;42.648;23.384;2022-10-17T04:49:07;96000.56;;;5.23;85.53
56052;BME280;41919;42.648;23.384;2022-10-17T04:51:32;95995.69;;;5.20;85.74
56052;BME280;41919;42.648;23.384;2022-10-17T04:53:57;95995.94;;;5.17;85.78
56052;BME280;41919;42.648;23.384;2022-10-17T04:56:23;96013.41;;;5.15;86.02
56052;BME280;41919;42.648;23.384;2022-10-17T04:58:49;96003.72;;;5.17;85.78
56052;BME280;41919;42.648;23.384;2022-10-17T05:01:15;96012.59;;;5.24;85.25
56052;BME280;41919;42.648;23.384;2022-10-17T05:03:41;96007.13;;;5.46;84.88
56052;BME280;41919;42.648;23.384;2022-10-17T05:06:07;96015.06;;;6.03;81.84
56052;BME280;41919;42.648;23.384;2022-10-17T05:08:33;96017.53;;;6.52;78.89
56052;BME280;41919;42.648;23.384;2022-10-17T05:10:58;96019.19;;;6.81;77.35
56052;BME280;41919;42.648;23.384;2022-10-17T05:13:24;96014.22;;;7.33;75.23
56052;BME280;41919;42.648;23.384;2022-10-17T05:15:50;96020.53;;;7.66;73.93
56052;BME280;41919;42.648;23.384;2022-10-17T05:18:15;96015.81;;;8.06;72.05
56052;BME280;41919;42.648;23.384;2022-10-17T05:20:40;96026.31;;;8.22;71.07
56052;BME280;41919;42.648;23.384;2022-10-17T05:23:06;96026.25;;;8.58;69.44
56052;BME280;41919;42.648;23.384;2022-10-17T05:25:31;96028.28;;;9.07;67.13
56052;BME280;41919;42.648;23.384;2022-10-17T05:27:56;96027.19;;;9.34;65.26
56052;BME280;41919;42.648;23.384;2022-10-17T05:30:22;96029.53;;;9.62;63.98
56052;BME280;41919;42.648;23.384;2022-10-17T05:32:48;96035.41;;;10.21;62.11
56052;BME280;41919;42.648;23.384;2022-10-17T05:35:15;96032.78;;;10.46;61.15
56052;BME280;41919;42.648;23.384;2022-10-17T05:37:40;96034.06;;;11.06;58.74
56052;BME280;41919;42.648;23.384;2022-10-17T05:40:06;96034.81;;;11.54;57.17
56052;BME280;41919;42.648;23.384;2022-10-17T05:42:31;96028.44;;;12.41;54.81
56052;BME280;41919;42.648;23.384;2022-10-17T05:44:57;96033.25;;;12.82;53.64
56052;BME280;41919;42.648;23.384;2022-10-17T05:47:22;96034.88;;;13.64;51.50
56052;BME280;41919;42.648;23.384;2022-10-17T05:49:47;96038.72;;;14.33;50.45
56052;BME280;41919;42.648;23.384;2022-10-17T05:52:13;96040.06;;;15.14;48.14
56052;BME280;41919;42.648;23.384;2022-10-17T05:54:38;96039.03;;;15.69;46.65
56052;BME280;41919;42.648;23.384;2022-10-17T05:57:03;96043.31;;;15.71;46.19
56052;BME280;41919;42.648;23.384;2022-10-17T05:59:29;96042.34;;;15.78;43.37
56052;BME280;41919;42.648;23.384;2022-10-17T06:01:54;96052.13;;;16.58;42.56
56052;BME280;41919;42.648;23.384;2022-10-17T06:04:19;96050.47;;;16.83;42.00
56052;BME280;41919;42.648;23.384;2022-10-17T06:06:45;96052.91;;;18.27;39.25
56052;BME280;41919;42.648;23.384;2022-10-17T06:09:10;96047.72;;;19.26;36.78
56052;BME280;41919;42.648;23.384;2022-10-17T06:11:35;96046.97;;;20.16;34.95
56052;BME280;41919;42.648;23.384;2022-10-17T06:14:00;96047.63;;;21.01;33.29
56052;BME280;41919;42.648;23.384;2022-10-17T06:16:26;96046.94;;;21.58;32.02
56052;BME280;41919;42.648;23.384;2022-10-17T06:18:51;96047.00;;;21.75;31.38
56052;BME280;41919;42.648;23.384;2022-10-17T06:21:18;96048.59;;;22.67;30.30
56052;BME280;41919;42.648;23.384;2022-10-17T06:23:44;96055.06;;;23.49;28.70
56052;BME280;41919;42.648;23.384;2022-10-17T06:26:09;96058.31;;;23.57;28.33
56052;BME280;41919;42.648;23.384;2022-10-17T06:28:35;96060.38;;;24.21;27.38
56052;BME280;41919;42.648;23.384;2022-10-17T06:31:10;96060.03;;;24.77;26.68
56052;BME280;41919;42.648;23.384;2022-10-17T06:33:36;96061.84;;;25.14;25.86
56052;BME280;41919;42.648;23.384;2022-10-17T06:36:02;96059.22;;;25.19;25.75
56052;BME280;41919;42.648;23.384;2022-10-17T06:38:28;96062.03;;;25.44;25.15
56052;BME280;41919;42.648;23.384;2022-10-17T06:40:53;96059.78;;;25.21;25.75
56052;BME280;41919;42.648;23.384;2022-10-17T06:43:21;96069.22;;;26.07;25.01
56052;BME280;41919;42.648;23.384;2022-10-17T06:45:46;96071.94;;;26.33;24.09
56052;BME280;41919;42.648;23.384;2022-10-17T06:48:11;96059.94;;;26.66;23.89
56052;BME280;41919;42.648;23.384;2022-10-17T06:50:37;96063.34;;;27.13;22.79
56052;BME280;41919;42.648;23.384;2022-10-17T06:53:02;96061.75;;;27.87;22.06
56052;BME280;41919;42.648;23.384;2022-10-17T06:55:27;96064.97;;;28.34;21.90
56052;BME280;41919;42.648;23.384;2022-10-17T06:57:54;96056.94;;;28.98;20.99
56052;BME280;41919;42.648;23.384;2022-10-17T07:00:19;96061.31;;;28.88;21.08
56052;BME280;41919;42.648;23.384;2022-10-17T07:02:44;96068.78;;;28.28;21.45
56052;BME280;41919;42.648;23.384;2022-10-17T07:05:09;96057.19;;;29.25;20.17
56052;BME280;41919;42.648;23.384;2022-10-17T07:07:35;96059.81;;;29.55;20.47
56052;BME280;41919;42.648;23.384;2022-10-17T07:10:00;96059.69;;;29.89;19.96
56052;BME280;41919;42.648;23.384;2022-10-17T07:12:27;96057.34;;;30.20;19.18
56052;BME280;41919;42.648;23.384;2022-10-17T07:14:53;96056.75;;;29.85;19.56
56052;BME280;41919;42.648;23.384;2022-10-17T07:17:18;96060.81;;;29.16;20.25
56052;BME280;41919;42.648;23.384;2022-10-17T07:19:44;96059.63;;;30.13;20.06
56052;BME280;41919;42.648;23.384;2022-10-17T07:22:09;96058.69;;;30.75;19.19
56052;BME280;41919;42.648;23.384;2022-10-17T07:24:34;96067.25;;;30.63;18.96
56052;BME280;41919;42.648;23.384;2022-10-17T07:27:00;96062.94;;;30.95;18.55
56052;BME280;41919;42.648;23.384;2022-10-17T07:29:25;96051.78;;;31.43;17.90
56052;BME280;41919;42.648;23.384;2022-10-17T07:31:50;96064.56;;;31.23;17.86
56052;BME280;41919;42.648;23.384;2022-10-17T07:34:16;96069.66;;;29.88;19.45
56052;BME280;41919;42.648;23.384;2022-10-17T07:36:41;96062.88;;;30.29;18.92
56052;BME280;41919;42.648;23.384;2022-10-17T07:39:07;96062.81;;;30.53;18.58
56052;BME280;41919;42.648;23.384;2022-10-17T07:41:32;96058.19;;;31.33;18.06
56052;BME280;41919;42.648;23.384;2022-10-17T07:43:57;96063.97;;;31.40;18.12
56052;BME280;41919;42.648;23.384;2022-10-17T07:46:23;96074.66;;;29.52;19.47
56052;BME280;41919;42.648;23.384;2022-10-17T07:48:48;96077.88;;;26.71;22.81
56052;BME280;41919;42.648;23.384;2022-10-17T07:51:14;96076.38;;;27.55;22.16
56052;BME280;41919;42.648;23.384;2022-10-17T07:53:40;96075.97;;;27.88;21.78
56052;BME280;41919;42.648;23.384;2022-10-17T07:56:07;96077.78;;;27.37;22.06
56052;BME280;41919;42.648;23.384;2022-10-17T07:58:33;96072.09;;;28.09;21.49
56052;BME280;41919;42.648;23.384;2022-10-17T08:00:59;96076.38;;;28.89;20.67
56052;BME280;41919;42.648;23.384;2022-10-17T08:03:25;96068.69;;;30.74;18.56
56052;BME280;41919;42.648;23.384;2022-10-17T08:05:50;96061.38;;;31.07;18.38
56052;BME280;41919;42.648;23.384;2022-10-17T08:08:15;96026.00;;;31.64;17.67
56052;BME280;41919;42.648;23.384;2022-10-17T08:10:40;96046.94;;;32.77;16.64
56052;BME280;41919;42.648;23.384;2022-10-17T08:13:06;96056.56;;;33.14;15.96
56052;BME280;41919;42.648;23.384;2022-10-17T08:15:31;96054.97;;;32.91;16.58
56052;BME280;41919;42.648;23.384;2022-10-17T08:17:57;96054.47;;;33.11;16.05
56052;BME280;41919;42.648;23.384;2022-10-17T08:20:22;96045.94;;;32.95;16.05
56052;BME280;41919;42.648;23.384;2022-10-17T08:22:51;96048.75;;;32.81;16.27
56052;BME280;41919;42.648;23.384;2022-10-17T08:25:16;96054.88;;;32.73;16.79
56052;BME280;41919;42.648;23.384;2022-10-17T08:27:41;96056.47;;;32.29;16.77
56052;BME280;41919;42.648;23.384;2022-10-17T08:30:07;96046.66;;;31.14;18.13
56052;BME280;41919;42.648;23.384;2022-10-17T08:32:32;96046.50;;;30.44;18.21
56052;BME280;41919;42.648;23.384;2022-10-17T08:34:58;96056.63;;;29.77;18.95
56052;BME280;41919;42.648;23.384;2022-10-17T08:37:23;96054.78;;;29.48;19.04
56052;BME280;41919;42.648;23.384;2022-10-17T08:39:48;96054.84;;;28.89;19.94
56052;BME280;41919;42.648;23.384;2022-10-17T08:42:23;96055.69;;;28.56;20.34
56052;BME280;41919;42.648;23.384;2022-10-17T08:47:35;96060.25;;;28.15;20.74
56052;BME280;41919;42.648;23.384;2022-10-17T08:50:03;96058.41;;;27.51;21.30
56052;BME280;41919;42.648;23.384;2022-10-17T08:55:02;96066.03;;;26.15;22.11
56052;BME280;41919;42.648;23.384;2022-10-17T08:57:27;96058.50;;;26.02;23.44
56052;BME280;41919;42.648;23.384;2022-10-17T08:59:53;96060.34;;;25.96;23.04
56052;BME280;41919;42.648;23.384;2022-10-17T09:09:57;96067.44;;;25.60;23.62
56052;BME280;41919;42.648;23.384;2022-10-17T09:22:46;96061.56;;;24.08;24.13
56052;BME280;41919;42.648;23.384;2022-10-17T09:25:14;96069.75;;;23.52;24.48
56052;BME280;41919;42.648;23.384;2022-10-17T09:32:50;96065.19;;;23.08;26.28
56052;BME280;41919;42.648;23.384;2022-10-17T09:35:17;96057.22;;;22.41;28.21
56052;BME280;41919;42.648;23.384;2022-10-17T09:37:43;96061.56;;;22.81;26.54
56052;BME280;41919;42.648;23.384;2022-10-17T09:40:16;96064.09;;;22.70;25.61
56052;BME280;41919;42.648;23.384;2022-10-17T09:42:43;96066.09;;;22.29;26.41
56052;BME280;41919;42.648;23.384;2022-10-17T09:50:35;96065.47;;;21.53;26.43
56052;BME280;41919;42.648;23.384;2022-10-17T09:53:02;96054.28;;;21.27;26.68
56052;BME280;41919;42.648;23.384;2022-10-17T09:55:42;96059.66;;;21.04;26.36
56052;BME280;41919;42.648;23.384;2022-10-17T09:58:08;96056.75;;;20.93;26.64
56052;BME280;41919;42.648;23.384;2022-10-17T10:00:38;96055.38;;;21.03;26.47
56052;BME280;41919;42.648;23.384;2022-10-17T10:03:15;96052.25;;;20.94;26.16
56052;BME280;41919;42.648;23.384;2022-10-17T10:05:41;96060.91;;;20.78;26.91
56052;BME280;41919;42.648;23.384;2022-10-17T10:08:13;96049.72;;;20.75;26.93
56052;BME280;41919;42.648;23.384;2022-10-17T10:10:39;96046.59;;;20.67;27.58
56052;BME280;41919;42.648;23.384;2022-10-17T10:15:36;96044.31;;;20.28;27.48
56052;BME280;41919;42.648;23.384;2022-10-17T10:18:06;96043.41;;;20.34;26.77
56052;BME280;41919;42.648;23.384;2022-10-17T10:20:48;96041.09;;;20.26;27.32
56052;BME280;41919;42.648;23.384;2022-10-17T10:23:26;96036.13;;;20.18;27.66
56052;BME280;41919;42.648;23.384;2022-10-17T10:25:58;96038.81;;;19.88;28.13
56052;BME280;41919;42.648;23.384;2022-10-17T10:28:30;96044.34;;;19.86;27.66
56052;BME280;41919;42.648;23.384;2022-10-17T10:30:56;96023.97;;;19.98;27.48
56052;BME280;41919;42.648;23.384;2022-10-17T10:33:26;96028.19;;;19.88;28.05
56052;BME280;41919;42.648;23.384;2022-10-17T10:35:59;96022.09;;;19.87;28.14
56052;BME280;41919;42.648;23.384;2022-10-17T10:38:28;96029.25;;;19.68;27.75
56052;BME280;41919;42.648;23.384;2022-10-17T10:40:55;96018.03;;;19.54;28.03
56052;BME280;41919;42.648;23.384;2022-10-17T10:43:24;96026.25;;;19.65;28.11
56052;BME280;41919;42.648;23.384;2022-10-17T10:45:51;96025.38;;;19.52;28.14
56052;BME280;41919;42.648;23.384;2022-10-17T10:50:49;96016.44;;;19.35;27.91
56052;BME280;41919;42.648;23.384;2022-10-17T10:58:25;96005.56;;;19.06;27.58
56052;BME280;41919;42.648;23.384;2022-10-17T11:00:51;96001.72;;;19.02;28.31
56052;BME280;41919;42.648;23.384;2022-10-17T11:03:25;96005.63;;;18.99;28.12
56052;BME280;41919;42.648;23.384;2022-10-17T11:08:25;95995.81;;;19.00;28.25
56052;BME280;41919;42.648;23.384;2022-10-17T11:10:58;95999.22;;;19.07;27.99
56052;BME280;41919;42.648;23.384;2022-10-17T11:13:27;95996.84;;;18.80;28.18
56052;BME280;41919;42.648;23.384;2022-10-17T11:18:40;95992.31;;;18.88;28.07
56052;BME280;41919;42.648;23.384;2022-10-17T11:21:09;95991.63;;;19.11;27.73
56052;BME280;41919;42.648;23.384;2022-10-17T11:26:13;95988.28;;;19.34;27.91
56052;BME280;41919;42.648;23.384;2022-10-17T11:28:39;95981.78;;;19.48;28.05
56052;BME280;41919;42.648;23.384;2022-10-17T11:31:06;95971.59;;;19.64;27.27
56052;BME280;41919;42.648;23.384;2022-10-17T11:36:10;95979.06;;;19.36;27.34
56052;BME280;41919;42.648;23.384;2022-10-17T11:38:41;95977.69;;;19.34;27.07
56052;BME280;41919;42.648;23.384;2022-10-17T11:41:11;95979.91;;;19.37;27.31
56052;BME280;41919;42.648;23.384;2022-10-17T11:43:48;95976.31;;;19.31;27.10
56052;BME280;41919;42.648;23.384;2022-10-17T11:46:17;95978.91;;;19.19;27.27
56052;BME280;41919;42.648;23.384;2022-10-17T11:48:45;95971.13;;;19.06;28.17
56052;BME280;41919;42.648;23.384;2022-10-17T11:51:13;95967.84;;;19.23;27.70
56052;BME280;41919;42.648;23.384;2022-10-17T11:56:04;95961.16;;;19.02;27.03
56052;BME280;41919;42.648;23.384;2022-10-17T12:03:56;95952.50;;;19.43;26.98
56052;BME280;41919;42.648;23.384;2022-10-17T12:08:56;95958.41;;;19.27;26.40
56052;BME280;41919;42.648;23.384;2022-10-17T12:11:27;95956.81;;;19.26;26.71
56052;BME280;41919;42.648;23.384;2022-10-17T12:13:54;95958.59;;;19.44;26.45
56052;BME280;41919;42.648;23.384;2022-10-17T12:18:46;95944.56;;;19.55;26.75
56052;BME280;41919;42.648;23.384;2022-10-17T12:21:12;95957.41;;;19.58;26.83
56052;BME280;41919;42.648;23.384;2022-10-17T12:23:37;95949.78;;;19.62;26.92
56052;BME280;41919;42.648;23.384;2022-10-17T12:26:05;95944.88;;;19.77;25.95
56052;BME280;41919;42.648;23.384;2022-10-17T12:28:52;95950.66;;;19.74;26.23
56052;BME280;41919;42.648;23.384;2022-10-17T12:33:56;95939.09;;;19.68;26.38
56052;BME280;41919;42.648;23.384;2022-10-17T12:41:51;95936.72;;;19.90;25.60
56052;BME280;41919;42.648;23.384;2022-10-17T12:46:49;95938.00;;;19.88;25.93
56052;BME280;41919;42.648;23.384;2022-10-17T12:54:31;95933.25;;;19.78;24.80
56052;BME280;41919;42.648;23.384;2022-10-17T12:57:02;95931.63;;;19.77;25.15
56052;BME280;41919;42.648;23.384;2022-10-17T12:59:37;95933.97;;;19.85;24.52
56052;BME280;41919;42.648;23.384;2022-10-17T13:02:03;95930.19;;;19.63;25.67
56052;BME280;41919;42.648;23.384;2022-10-17T13:04:28;95937.25;;;19.38;26.14
56052;BME280;41919;42.648;23.384;2022-10-17T13:06:55;95941.56;;;19.51;26.26
56052;BME280;41919;42.648;23.384;2022-10-17T13:12:22;95934.53;;;19.75;24.89
56052;BME280;41919;42.648;23.384;2022-10-17T13:14:49;95926.09;;;19.90;24.66
56052;BME280;41919;42.648;23.384;2022-10-17T13:17:26;95932.03;;;19.92;24.90
56052;BME280;41919;42.648;23.384;2022-10-17T13:19:52;95931.41;;;19.90;23.26
56052;BME280;41919;42.648;23.384;2022-10-17T13:22:22;95931.56;;;19.65;23.63
56052;BME280;41919;42.648;23.384;2022-10-17T13:24:48;95932.44;;;19.77;23.37
56052;BME280;41919;42.648;23.384;2022-10-17T13:27:26;95928.34;;;19.63;23.33
56052;BME280;41919;42.648;23.384;2022-10-17T13:29:52;95929.47;;;19.55;23.73
56052;BME280;41919;42.648;23.384;2022-10-17T13:32:20;95931.41;;;19.48;22.97
56052;BME280;41919;42.648;23.384;2022-10-17T13:34:46;95928.69;;;19.67;22.69
56052;BME280;41919;42.648;23.384;2022-10-17T13:37:28;95926.00;;;19.73;22.28
56052;BME280;41919;42.648;23.384;2022-10-17T13:39:54;95925.16;;;19.73;22.28
56052;BME280;41919;42.648;23.384;2022-10-17T13:42:22;95927.94;;;19.78;22.38
56052;BME280;41919;42.648;23.384;2022-10-17T13:44:48;95922.06;;;19.88;22.21
56052;BME280;41919;42.648;23.384;2022-10-17T13:47:23;95924.97;;;19.86;22.28
56052;BME280;41919;42.648;23.384;2022-10-17T13:49:50;95930.63;;;19.90;21.58
56052;BME280;41919;42.648;23.384;2022-10-17T13:52:17;95934.63;;;19.81;21.61
56052;BME280;41919;42.648;23.384;2022-10-17T13:54:44;95922.69;;;19.59;22.77
56052;BME280;41919;42.648;23.384;2022-10-17T13:59:50;95934.34;;;19.58;22.49
56052;BME280;41919;42.648;23.384;2022-10-17T14:02:27;95931.66;;;19.47;23.03
56052;BME280;41919;42.648;23.384;2022-10-17T14:07:25;95926.25;;;19.53;25.33
56052;BME280;41919;42.648;23.384;2022-10-17T14:09:52;95929.84;;;19.59;25.37
56052;BME280;41919;42.648;23.384;2022-10-17T14:12:18;95936.03;;;19.53;25.97
56052;BME280;41919;42.648;23.384;2022-10-17T14:14:48;95931.47;;;19.60;25.83
56052;BME280;41919;42.648;23.384;2022-10-17T14:17:24;95937.16;;;19.45;27.47
56052;BME280;41919;42.648;23.384;2022-10-17T14:19:51;95938.63;;;19.29;28.34
56052;BME280;41919;42.648;23.384;2022-10-17T14:22:24;95943.34;;;19.27;29.25
56052;BME280;41919;42.648;23.384;2022-10-17T14:24:50;95945.78;;;19.10;29.98
56052;BME280;41919;42.648;23.384;2022-10-17T14:27:34;95944.47;;;19.01;30.19
56052;BME280;41919;42.648;23.384;2022-10-17T14:30:02;95945.66;;;18.87;30.85
56052;BME280;41919;42.648;23.384;2022-10-17T14:32:28;95942.91;;;18.75;31.24
56052;BME280;41919;42.648;23.384;2022-10-17T14:34:55;95944.53;;;18.57;31.82
56052;BME280;41919;42.648;23.384;2022-10-17T14:37:28;95947.25;;;18.51;32.35
56052;BME280;41919;42.648;23.384;2022-10-17T14:39:57;95952.75;;;18.49;32.49
56052;BME280;41919;42.648;23.384;2022-10-17T14:42:23;95939.88;;;18.34;33.25
56052;BME280;41919;42.648;23.384;2022-10-17T14:44:49;95946.63;;;18.30;33.50
56052;BME280;41919;42.648;23.384;2022-10-17T14:47:16;95953.50;;;18.13;33.94
56052;BME280;41919;42.648;23.384;2022-10-17T14:49:43;95947.94;;;17.96;34.60
56052;BME280;41919;42.648;23.384;2022-10-17T14:52:21;95950.84;;;17.81;34.80
56052;BME280;41919;42.648;23.384;2022-10-17T14:54:48;95961.28;;;17.76;34.97
56052;BME280;41919;42.648;23.384;2022-10-17T14:57:17;95959.06;;;17.73;35.33